Time;durP1;ratioP1;P1;durP2;ratioP2;P2;SDS_P1;SDS_P2;PMS_P1;PMS_P2;Temp;Humidity;BMP_temperature;BMP_pressure;BME280_temperature;BME280_humidity;BME280_pressure;Samples;Min_cycle;Max_cycle;Signal;HPM_P1;HPM_P2
2021/11/03 00:01:15;;;;;;;5.90;2.63;;;;;;;8.52;90.51;96690.22;5036262;28;20042;-56
2021/11/03 00:03:42;;;;;;;4.70;3.20;;;;;;;7.96;94.21;96691.38;5037095;28;20650;-56
2021/11/03 00:06:09;;;;;;;5.85;3.00;;;;;;;7.93;95.50;96696.75;5034062;28;21167;-56
2021/11/03 00:08:35;;;;;;;4.30;2.80;;;;;;;8.07;97.21;96683.91;5037609;28;20036;-57
2021/11/03 00:11:00;;;;;;;5.80;3.20;;;;;;;8.64;95.16;96678.34;5035817;28;20068;-56
2021/11/03 00:13:27;;;;;;;3.70;2.40;;;;;;;8.41;92.37;96674.31;5037675;28;20623;-58
2021/11/03 00:15:55;;;;;;;5.30;2.40;;;;;;;8.70;91.18;96678.00;5038921;28;20033;-56
2021/11/03 00:18:20;;;;;;;4.80;2.80;;;;;;;8.87;94.01;96679.66;5038719;28;20506;-56
2021/11/03 00:20:47;;;;;;;4.85;2.75;;;;;;;8.16;94.03;96675.66;5039616;28;20559;-57
2021/11/03 00:23:12;;;;;;;6.63;3.13;;;;;;;8.45;90.65;96665.47;5040775;28;20411;-56
2021/11/03 00:25:40;;;;;;;5.07;3.05;;;;;;;8.39;92.88;96669.22;5040362;28;20617;-57
2021/11/03 00:28:08;;;;;;;4.95;3.00;;;;;;;8.57;91.90;96657.03;5040893;28;20025;-57
2021/11/03 00:30:34;;;;;;;5.13;3.08;;;;;;;7.96;92.87;96660.22;5039464;28;20404;-57
2021/11/03 00:33:00;;;;;;;5.05;3.35;;;;;;;7.85;94.34;96651.25;5040380;28;20072;-56
2021/11/03 00:35:25;;;;;;;5.07;3.25;;;;;;;8.05;93.37;96660.63;5040707;28;20116;-57
2021/11/03 00:37:50;;;;;;;5.10;3.10;;;;;;;8.14;94.27;96661.88;5040846;28;20124;-58
2021/11/03 00:40:16;;;;;;;5.78;3.63;;;;;;;8.13;94.10;96660.22;5039770;28;20033;-56
2021/11/03 00:42:41;;;;;;;4.78;2.92;;;;;;;7.84;94.25;96667.75;5040742;28;20111;-58
2021/11/03 00:45:08;;;;;;;4.88;3.20;;;;;;;7.90;95.59;96675.22;5039420;28;20032;-56
2021/11/03 00:47:33;;;;;;;4.93;3.28;;;;;;;8.11;90.93;96675.03;5040415;28;20036;-58
2021/11/03 00:49:59;;;;;;;4.88;3.30;;;;;;;7.51;95.88;96691.06;5039695;28;20033;-58
2021/11/03 00:52:24;;;;;;;4.97;2.75;;;;;;;7.99;93.37;96701.63;5021272;28;20041;-56
2021/11/03 00:54:49;;;;;;;7.00;2.90;;;;;;;7.88;95.27;96700.44;5039286;28;20055;-57
2021/11/03 00:57:15;;;;;;;5.05;3.30;;;;;;;8.00;94.11;96703.31;5039727;28;20094;-56
2021/11/03 00:59:40;;;;;;;6.13;3.42;;;;;;;8.06;96.00;96693.44;5038804;28;20044;-56
2021/11/03 01:02:06;;;;;;;5.85;3.08;;;;;;;7.95;93.13;96700.13;5037593;28;20040;-56
2021/11/03 01:04:31;;;;;;;5.65;3.50;;;;;;;7.82;94.02;96700.72;5040196;28;20056;-55
2021/11/03 01:06:57;;;;;;;5.85;3.47;;;;;;;7.86;94.81;96711.81;5029454;28;20041;-55
2021/11/03 01:09:22;;;;;;;5.85;3.50;;;;;;;7.89;92.68;96715.09;5040188;28;20450;-55
2021/11/03 01:11:48;;;;;;;4.93;3.40;;;;;;;7.65;93.39;96716.31;5038695;28;20037;-55
2021/11/03 01:14:13;;;;;;;7.70;4.10;;;;;;;7.72;97.34;96709.91;5039610;28;20478;-55
2021/11/03 01:16:39;;;;;;;8.15;3.90;;;;;;;7.53;93.53;96710.84;5039708;28;20702;-55
2021/11/03 01:19:05;;;;;;;5.82;3.92;;;;;;;7.50;98.91;96710.97;5039824;28;20028;-55
2021/11/03 01:21:33;;;;;;;5.75;3.72;;;;;;;7.52;96.24;96703.94;5038320;28;20386;-55
2021/11/03 01:23:59;;;;;;;9.50;4.05;;;;;;;7.50;96.04;96702.34;5039764;28;20027;-55
2021/11/03 01:26:24;;;;;;;6.57;3.95;;;;;;;7.52;93.08;96709.13;5039131;28;20037;-56
2021/11/03 01:28:50;;;;;;;5.88;3.72;;;;;;;7.62;92.89;96706.91;5040208;28;20021;-57
2021/11/03 01:31:16;;;;;;;5.57;3.20;;;;;;;7.57;92.32;96705.47;5038431;28;20048;-57
2021/11/03 01:33:42;;;;;;;6.35;3.97;;;;;;;7.55;91.89;96702.94;5040125;28;20025;-55
2021/11/03 01:36:08;;;;;;;4.38;2.97;;;;;;;7.67;91.10;96701.53;5039618;28;20060;-55
2021/11/03 01:38:34;;;;;;;9.90;3.97;;;;;;;7.22;94.48;96695.06;5039637;28;20080;-56
2021/11/03 01:40:59;;;;;;;5.35;3.13;;;;;;;7.71;91.79;96693.47;5037080;28;20459;-56
2021/11/03 01:44:03;;;;;;;7.35;3.95;;;;;;;7.09;92.50;96690.47;5039620;28;20037;-55
2021/11/03 01:46:39;;;;;;;6.65;3.95;;;;;;;7.31;95.69;96684.25;5017219;28;20044;-56
2021/11/03 01:49:13;;;;;;;6.00;3.35;;;;;;;7.38;94.16;96680.44;5039627;28;20028;-55
2021/11/03 01:51:48;;;;;;;5.90;2.75;;;;;;;7.71;91.83;96677.09;5042316;28;20033;-57
2021/11/03 01:54:20;;;;;;;4.93;3.00;;;;;;;7.55;92.09;96676.16;5038513;28;20025;-55
2021/11/03 01:56:47;;;;;;;5.47;3.22;;;;;;;7.49;90.96;96672.97;5038082;28;20083;-56
2021/11/03 01:59:16;;;;;;;6.97;3.65;;;;;;;7.41;96.62;96663.91;5039423;28;20447;-55
2021/11/03 02:01:41;;;;;;;7.72;4.25;;;;;;;7.46;92.35;96665.34;5037838;28;20045;-55
2021/11/03 02:04:07;;;;;;;7.47;4.30;;;;;;;7.17;91.51;96661.59;5039294;28;20021;-55
2021/11/03 02:06:32;;;;;;;7.20;3.95;;;;;;;7.30;94.75;96664.44;5039123;28;20033;-56
2021/11/03 02:08:58;;;;;;;8.98;4.47;;;;;;;7.07;93.91;96661.19;5039113;28;20025;-57
2021/11/03 02:11:26;;;;;;;5.32;2.85;;;;;;;7.33;95.47;96661.66;5037430;28;20598;-56
2021/11/03 02:13:52;;;;;;;6.63;3.65;;;;;;;7.32;94.43;96660.00;5038938;28;20029;-56
2021/11/03 02:16:19;;;;;;;6.03;2.75;;;;;;;7.69;91.66;96664.19;5037204;28;20044;-57
2021/11/03 02:18:46;;;;;;;4.82;3.00;;;;;;;7.70;92.23;96654.63;5039070;28;20189;-55
2021/11/03 02:21:18;;;;;;;8.57;4.78;;;;;;;7.31;89.77;96643.59;5035422;28;20668;-56
2021/11/03 02:23:54;;;;;;;7.05;4.25;;;;;;;6.91;91.98;96655.91;5038780;28;20064;-57
2021/11/03 02:26:28;;;;;;;10.77;5.22;;;;;;;6.86;93.77;96657.88;5036475;28;20774;-55
2021/11/03 02:28:55;;;;;;;10.45;5.40;;;;;;;7.06;94.86;96628.41;5037958;28;20041;-55
2021/11/03 02:31:28;;;;;;;9.25;6.03;;;;;;;6.96;93.43;96632.34;5036504;28;20048;-56
2021/11/03 02:33:54;;;;;;;10.40;5.80;;;;;;;7.03;97.35;96623.38;5037284;28;20021;-58
2021/11/03 02:36:19;;;;;;;12.35;6.55;;;;;;;6.98;99.40;96617.56;5038067;28;20041;-56
2021/11/03 02:38:44;;;;;;;13.43;5.82;;;;;;;6.81;96.94;96625.31;5038332;28;20017;-56
2021/11/03 02:41:13;;;;;;;12.20;6.88;;;;;;;6.72;95.93;96619.66;5035556;28;20064;-56
2021/11/03 02:43:46;;;;;;;11.40;7.35;;;;;;;6.82;95.95;96609.72;5038813;28;20040;-55
2021/11/03 02:46:13;;;;;;;12.30;7.25;;;;;;;6.81;97.72;96607.19;5037782;28;20040;-55
2021/11/03 02:48:41;;;;;;;11.68;6.40;;;;;;;6.70;97.80;96605.94;5038656;28;20248;-58
2021/11/03 02:51:13;;;;;;;11.30;6.70;;;;;;;6.60;99.02;96603.84;5035259;28;20033;-56
2021/11/03 02:53:55;;;;;;;15.20;8.98;;;;;;;6.36;98.80;96607.53;5053662;28;20116;-55
2021/11/03 02:56:25;;;;;;;12.50;6.90;;;;;;;6.65;96.78;96602.72;5037831;28;20055;-55
2021/11/03 02:58:50;;;;;;;14.32;7.30;;;;;;;6.59;96.39;96603.03;5038183;28;20082;-54
2021/11/03 03:01:34;;;;;;;15.40;8.27;;;;;;;6.66;99.92;96593.22;5036520;28;20040;-56
2021/11/03 03:04:00;;;;;;;18.13;9.65;;;;;;;6.69;96.48;96591.31;5038554;28;20029;-58
2021/11/03 03:06:28;;;;;;;13.05;6.35;;;;;;;7.05;94.19;96590.44;5037806;28;20029;-56
2021/11/03 03:08:54;;;;;;;6.85;3.40;;;;;;;7.22;91.64;96601.72;5037268;28;20087;-56
2021/11/03 03:11:21;;;;;;;11.52;5.85;;;;;;;6.87;92.59;96612.06;5036177;28;20103;-55
2021/11/03 03:13:49;;;;;;;14.07;7.50;;;;;;;6.60;95.54;96609.88;5038084;28;20191;-56
2021/11/03 03:16:16;;;;;;;14.05;7.70;;;;;;;6.88;90.85;96609.41;5036903;28;20037;-57
2021/11/03 03:18:41;;;;;;;7.80;4.10;;;;;;;7.43;90.87;96595.47;5038427;28;20469;-55
2021/11/03 03:21:07;;;;;;;10.05;4.80;;;;;;;7.55;87.79;96598.34;5036408;28;20530;-56
2021/11/03 03:23:32;;;;;;;9.05;4.78;;;;;;;7.10;90.95;96598.00;5038358;28;20053;-55
2021/11/03 03:25:59;;;;;;;9.90;5.18;;;;;;;7.29;89.38;96598.72;5037643;28;20041;-56
2021/11/03 03:28:24;;;;;;;11.80;6.00;;;;;;;7.47;90.35;96607.34;5037179;28;20052;-57
2021/11/03 03:30:50;;;;;;;16.80;8.60;;;;;;;7.06;90.25;96612.03;5035128;28;20176;-56
2021/11/03 03:33:15;;;;;;;14.77;7.60;;;;;;;6.84;91.78;96604.44;5038254;28;20021;-56
2021/11/03 03:35:41;;;;;;;13.25;7.70;;;;;;;5.77;96.71;96611.03;5037192;28;20079;-56
2021/11/03 03:38:06;;;;;;;12.05;5.90;;;;;;;6.19;95.69;96599.69;5037998;28;20107;-57
2021/11/03 03:40:31;;;;;;;12.45;6.88;;;;;;;6.40;92.52;96587.50;5036235;28;20684;-56
2021/11/03 03:42:57;;;;;;;13.88;7.47;;;;;;;6.37;91.93;96575.53;5037928;28;20045;-56
2021/11/03 03:45:22;;;;;;;10.68;5.75;;;;;;;6.25;94.52;96572.69;5037435;28;20616;-57
2021/11/03 03:47:48;;;;;;;8.57;5.13;;;;;;;6.53;92.81;96572.25;5038085;28;20033;-55
2021/11/03 03:50:13;;;;;;;6.65;3.40;;;;;;;6.78;92.00;96591.78;5038529;28;20422;-56
2021/11/03 03:52:39;;;;;;;11.60;5.10;;;;;;;6.71;91.83;96599.84;5041073;28;20037;-57
2021/11/03 03:55:07;;;;;;;9.27;4.88;;;;;;;6.54;91.06;96600.66;5040394;28;20061;-56
2021/11/03 03:57:33;;;;;;;12.43;7.10;;;;;;;6.24;92.53;96589.97;5041250;28;20021;-56
2021/11/03 03:59:59;;;;;;;13.60;6.85;;;;;;;6.05;96.56;96586.56;5040139;28;20061;-58
2021/11/03 04:02:24;;;;;;;11.45;5.65;;;;;;;6.63;95.06;96583.81;5040901;28;20043;-56
2021/11/03 04:04:49;;;;;;;13.90;6.10;;;;;;;6.83;93.70;96589.81;5041547;28;20112;-55
2021/11/03 04:07:15;;;;;;;12.75;6.85;;;;;;;6.61;92.35;96585.66;5040358;28;20040;-57
2021/11/03 04:09:40;;;;;;;12.20;6.60;;;;;;;6.78;93.12;96584.81;5029694;28;20017;-56
2021/11/03 04:12:06;;;;;;;10.77;5.35;;;;;;;7.00;91.78;96584.63;5039537;28;20039;-56
2021/11/03 04:14:31;;;;;;;15.00;6.72;;;;;;;7.10;91.37;96578.06;5041446;28;20372;-55
2021/11/03 04:16:57;;;;;;;11.52;5.97;;;;;;;7.02;91.70;96589.72;5040820;28;20091;-59
2021/11/03 04:19:22;;;;;;;9.63;5.30;;;;;;;7.07;91.70;96588.59;5041584;28;20057;-55
2021/11/03 04:21:47;;;;;;;11.65;5.90;;;;;;;7.02;91.84;96590.59;5039829;28;20041;-56
2021/11/03 04:24:13;;;;;;;13.50;7.28;;;;;;;7.19;92.81;96597.53;5041024;28;20094;-57
2021/11/03 04:26:42;;;;;;;15.50;7.60;;;;;;;6.60;92.79;96594.34;5040820;28;20049;-56
2021/11/03 04:29:08;;;;;;;12.38;6.70;;;;;;;6.88;92.76;96585.25;5040919;28;20029;-56
2021/11/03 04:31:34;;;;;;;14.23;7.95;;;;;;;6.78;93.99;96590.00;5039317;28;20058;-58
2021/11/03 04:33:59;;;;;;;11.27;6.38;;;;;;;6.85;93.79;96593.16;5039919;28;20064;-55
2021/11/03 04:36:25;;;;;;;14.93;7.30;;;;;;;7.02;91.44;96582.81;5040596;28;20869;-58
2021/11/03 04:38:53;;;;;;;13.50;7.22;;;;;;;6.95;92.16;96582.28;5040567;28;20036;-57
2021/11/03 04:41:19;;;;;;;16.45;6.80;;;;;;;6.87;92.14;96575.78;5038732;28;20100;-57
2021/11/03 04:43:46;;;;;;;13.07;7.65;;;;;;;6.75;91.49;96575.47;5040994;28;20025;-55
2021/11/03 04:46:14;;;;;;;13.10;7.60;;;;;;;6.81;91.13;96570.91;5039949;28;20124;-56
2021/11/03 04:48:41;;;;;;;11.52;6.28;;;;;;;7.02;92.12;96584.56;5039928;28;20525;-55
2021/11/03 04:51:06;;;;;;;11.27;6.95;;;;;;;7.07;90.30;96583.41;5038908;28;20837;-58
2021/11/03 04:53:32;;;;;;;14.98;7.80;;;;;;;7.12;90.75;96591.78;5040383;28;20108;-55
2021/11/03 04:55:59;;;;;;;12.70;7.30;;;;;;;6.54;93.43;96584.25;5038105;28;20037;-55
2021/11/03 04:58:25;;;;;;;11.45;6.05;;;;;;;6.91;94.28;96588.53;5040242;28;20027;-57
2021/11/03 05:00:51;;;;;;;11.82;7.00;;;;;;;6.93;92.10;96586.69;5038461;28;20032;-57
2021/11/03 05:03:17;;;;;;;15.00;7.13;;;;;;;6.92;93.43;96586.75;5040259;28;20689;-56
2021/11/03 05:05:42;;;;;;;12.73;7.30;;;;;;;6.95;93.31;96578.84;5039592;28;20037;-56
2021/11/03 05:08:09;;;;;;;13.20;6.53;;;;;;;7.09;92.99;96575.56;5039627;28;20044;-57
2021/11/03 05:10:34;;;;;;;14.00;7.28;;;;;;;6.92;94.82;96579.81;5038452;28;20040;-56
2021/11/03 05:12:59;;;;;;;11.23;6.40;;;;;;;6.85;95.27;96581.03;5038859;28;20029;-55
2021/11/03 05:15:25;;;;;;;13.90;7.30;;;;;;;6.97;94.71;96582.19;5038216;28;20037;-56
2021/11/03 05:17:50;;;;;;;14.05;7.93;;;;;;;6.73;94.50;96579.88;5039779;28;20108;-55
2021/11/03 05:20:18;;;;;;;12.82;7.28;;;;;;;6.70;97.00;96580.03;5037416;28;20555;-56
2021/11/03 05:22:44;;;;;;;14.73;7.90;;;;;;;6.78;97.03;96574.47;5039088;28;20799;-56
2021/11/03 05:25:11;;;;;;;14.98;7.78;;;;;;;6.95;95.49;96578.84;5039441;28;20093;-56
2021/11/03 05:27:36;;;;;;;13.70;7.38;;;;;;;6.74;94.51;96572.94;5039622;28;20024;-56
2021/11/03 05:30:04;;;;;;;12.50;6.70;;;;;;;6.86;95.41;96564.59;5039526;28;20037;-58
2021/11/03 05:32:29;;;;;;;12.38;6.68;;;;;;;6.79;95.39;96573.56;5046882;28;20056;-57
2021/11/03 05:34:54;;;;;;;11.68;6.80;;;;;;;6.87;96.25;96575.78;5039785;28;20135;-56
2021/11/03 05:37:20;;;;;;;15.57;7.75;;;;;;;6.68;96.26;96579.25;5038981;28;20423;-55
2021/11/03 05:39:45;;;;;;;14.43;7.90;;;;;;;6.73;98.32;96579.88;5039625;28;20025;-55
2021/11/03 05:42:11;;;;;;;13.73;7.50;;;;;;;6.48;96.58;96580.22;5038498;28;20529;-58
2021/11/03 05:44:37;;;;;;;14.25;8.10;;;;;;;6.69;99.13;96583.53;5039348;28;20025;-55
2021/11/03 05:47:03;;;;;;;13.63;7.80;;;;;;;6.67;96.39;96580.19;5038944;28;20047;-57
2021/11/03 05:49:32;;;;;;;13.25;7.28;;;;;;;6.69;96.97;96577.50;5039650;28;20028;-55
2021/11/03 05:52:00;;;;;;;13.80;7.80;;;;;;;6.47;97.80;96582.88;5037556;28;20036;-57
2021/11/03 05:54:26;;;;;;;15.23;7.28;;;;;;;6.83;96.75;96589.81;5039102;28;20056;-57
2021/11/03 05:56:54;;;;;;;13.68;7.30;;;;;;;6.85;95.67;96594.00;5037833;28;20071;-56
2021/11/03 05:59:20;;;;;;;16.25;8.43;;;;;;;6.84;95.67;96576.78;5038830;28;20032;-56
2021/11/03 06:01:45;;;;;;;16.00;8.63;;;;;;;6.77;96.00;96574.56;5028117;28;20029;-56
2021/11/03 06:04:11;;;;;;;15.02;7.80;;;;;;;6.88;99.27;96567.94;5039266;28;20047;-57
2021/11/03 06:06:37;;;;;;;12.80;7.35;;;;;;;6.57;97.13;96560.81;5041014;28;20151;-55
2021/11/03 06:09:04;;;;;;;13.60;7.50;;;;;;;6.56;96.68;96553.94;5040134;28;20108;-58
2021/11/03 06:11:31;;;;;;;15.10;7.18;;;;;;;6.53;95.88;96556.69;5039964;28;20790;-57
2021/11/03 06:13:56;;;;;;;13.38;7.50;;;;;;;6.55;94.68;96557.47;5038956;28;20029;-58
2021/11/03 06:16:22;;;;;;;16.83;8.20;;;;;;;7.15;93.48;96559.72;5041046;28;20029;-57
2021/11/03 06:18:48;;;;;;;15.73;8.30;;;;;;;7.02;95.27;96559.50;5034924;28;20098;-56
2021/11/03 06:21:14;;;;;;;14.90;8.02;;;;;;;6.72;93.82;96552.28;5036731;28;20388;-59
2021/11/03 06:23:39;;;;;;;17.40;8.10;;;;;;;7.01;93.77;96552.63;5041056;28;20040;-57
2021/11/03 06:26:05;;;;;;;17.45;7.78;;;;;;;6.55;96.97;96552.28;5040791;28;20045;-57
2021/11/03 06:28:31;;;;;;;13.63;7.68;;;;;;;6.64;96.72;96538.88;5040609;28;20036;-56
2021/11/03 06:30:56;;;;;;;15.18;8.40;;;;;;;6.63;97.51;96542.38;5039684;28;20535;-56
2021/11/03 06:33:22;;;;;;;12.13;6.32;;;;;;;6.70;96.71;96546.34;5040090;28;20484;-56
2021/11/03 06:35:49;;;;;;;14.75;8.70;;;;;;;6.46;97.94;96550.13;5039163;28;20430;-57
2021/11/03 06:38:15;;;;;;;17.10;8.52;;;;;;;6.73;96.22;96547.97;5040850;28;20720;-57
2021/11/03 06:40:42;;;;;;;18.40;8.77;;;;;;;6.52;97.66;96548.06;5039754;28;20051;-57
2021/11/03 06:43:08;;;;;;;15.18;8.07;;;;;;;6.20;97.96;96541.84;5039522;28;20100;-56
2021/11/03 06:45:34;;;;;;;17.10;7.93;;;;;;;6.52;97.43;96537.69;5040479;28;20040;-57
2021/11/03 06:47:59;;;;;;;18.20;8.60;;;;;;;6.73;96.22;96532.41;5040538;28;20037;-57
2021/11/03 06:50:33;;;;;;;15.95;8.38;;;;;;;6.61;96.08;96531.25;5039864;28;20041;-55
2021/11/03 06:53:00;;;;;;;15.77;8.07;;;;;;;6.66;97.08;96541.41;5040373;28;20033;-56
2021/11/03 06:55:27;;;;;;;14.48;8.13;;;;;;;6.78;95.03;96534.75;5040472;28;20083;-58
2021/11/03 06:57:52;;;;;;;16.23;8.30;;;;;;;6.62;94.71;96526.91;5039237;28;20029;-56
2021/11/03 07:00:22;;;;;;;15.35;7.70;;;;;;;6.63;95.45;96521.63;5039721;28;20032;-56
2021/11/03 07:02:48;;;;;;;15.75;8.02;;;;;;;6.52;96.04;96527.34;5038741;28;20099;-60
2021/11/03 07:05:13;;;;;;;16.70;8.35;;;;;;;6.58;95.27;96531.41;5037057;28;20021;-57
2021/11/03 07:07:39;;;;;;;17.05;8.35;;;;;;;6.78;94.52;96529.59;5039738;28;20654;-55
2021/11/03 07:10:08;;;;;;;11.55;6.93;;;;;;;7.93;89.16;96525.41;5040551;28;20025;-55
2021/11/03 07:12:33;;;;;;;12.80;7.28;;;;;;;9.09;88.30;96528.44;5039827;28;20045;-57
2021/11/03 07:14:59;;;;;;;12.88;7.10;;;;;;;10.92;88.42;96521.50;5040935;28;20028;-57
2021/11/03 07:17:24;;;;;;;11.23;6.65;;;;;;;11.35;83.81;96524.69;5040278;28;20041;-57
2021/11/03 07:19:49;;;;;;;10.00;6.00;;;;;;;12.38;80.40;96523.72;5040548;28;20033;-56
2021/11/03 07:22:15;;;;;;;8.18;5.38;;;;;;;11.38;72.91;96511.44;5029174;28;20084;-58
2021/11/03 07:24:40;;;;;;;8.75;5.38;;;;;;;11.47;73.79;96511.72;5043366;28;20032;-56
2021/11/03 07:27:06;;;;;;;9.80;5.75;;;;;;;11.40;73.48;96508.72;5044288;28;20041;-58
2021/11/03 07:29:31;;;;;;;9.13;5.22;;;;;;;12.25;68.74;96508.09;5044767;28;20107;-56
2021/11/03 07:31:56;;;;;;;7.72;5.72;;;;;;;12.71;68.72;96512.59;5043074;28;20033;-58
2021/11/03 07:34:22;;;;;;;9.98;6.00;;;;;;;13.10;67.47;96510.56;5044348;28;20415;-56
2021/11/03 07:36:47;;;;;;;10.32;6.03;;;;;;;12.69;67.66;96511.88;5044381;28;20653;-56
2021/11/03 07:39:13;;;;;;;8.32;5.57;;;;;;;11.55;70.07;96507.66;5044922;28;20383;-58
2021/11/03 07:41:39;;;;;;;8.13;5.50;;;;;;;11.63;70.61;96499.28;5043208;28;20036;-56
2021/11/03 07:44:06;;;;;;;8.77;5.70;;;;;;;11.03;71.98;96499.91;5044678;28;20138;-57
2021/11/03 07:46:32;;;;;;;9.93;5.75;;;;;;;10.26;73.93;96500.50;5044165;28;20037;-58
2021/11/03 07:48:57;;;;;;;9.27;5.43;;;;;;;10.01;73.80;96511.63;5043422;28;20036;-56
2021/11/03 07:51:23;;;;;;;9.55;5.45;;;;;;;10.14;74.77;96512.53;5043134;28;20533;-58
2021/11/03 07:53:50;;;;;;;9.85;6.05;;;;;;;9.26;76.58;96509.22;5044609;28;20020;-56
2021/11/03 07:56:21;;;;;;;8.85;5.40;;;;;;;8.77;79.68;96507.75;5044162;28;20045;-57
2021/11/03 07:58:49;;;;;;;8.57;5.22;;;;;;;10.08;76.06;96496.47;5044443;28;20517;-58
2021/11/03 08:01:15;;;;;;;8.68;5.82;;;;;;;9.98;76.46;96496.19;5042874;28;20766;-58
2021/11/03 08:03:41;;;;;;;9.10;5.60;;;;;;;10.06;76.13;96501.78;5043567;28;20861;-57
2021/11/03 08:06:08;;;;;;;7.85;4.47;;;;;;;10.15;76.06;96490.75;5040786;28;20036;-58
2021/11/03 08:08:37;;;;;;;9.25;6.00;;;;;;;9.63;76.84;96488.78;5044208;28;20028;-57
2021/11/03 08:11:03;;;;;;;11.25;6.18;;;;;;;9.68;76.37;96489.34;5042509;28;20514;-56
2021/11/03 08:13:31;;;;;;;9.82;6.28;;;;;;;9.59;78.93;96476.91;5043551;28;20063;-57
2021/11/03 08:15:59;;;;;;;9.90;6.00;;;;;;;9.22;78.76;96471.34;5026160;28;20037;-57
2021/11/03 08:18:27;;;;;;;11.02;6.80;;;;;;;9.45;79.07;96465.56;5042705;28;20125;-56
2021/11/03 08:20:53;;;;;;;10.73;6.60;;;;;;;9.15;78.51;96470.03;5032475;28;20045;-57
2021/11/03 08:23:19;;;;;;;10.25;5.90;;;;;;;9.75;77.80;96466.38;5043941;28;20673;-57
2021/11/03 08:25:44;;;;;;;10.32;6.53;;;;;;;9.30;80.07;96469.13;5043546;28;20124;-58
2021/11/03 08:28:11;;;;;;;10.73;6.40;;;;;;;9.50;80.67;96464.44;5043381;28;20029;-55
2021/11/03 08:30:40;;;;;;;9.13;6.10;;;;;;;9.94;78.86;96464.28;5042002;28;20119;-58
2021/11/03 08:33:09;;;;;;;9.88;6.78;;;;;;;9.98;77.98;96459.72;5043484;28;20029;-56
2021/11/03 08:35:36;;;;;;;9.05;5.13;;;;;;;10.46;78.32;96449.75;5042309;28;20052;-56
2021/11/03 08:38:06;;;;;;;9.27;6.03;;;;;;;10.41;76.26;96454.41;5043433;28;20035;-56
2021/11/03 08:40:34;;;;;;;8.55;5.65;;;;;;;10.47;79.29;96454.00;5041910;28;20037;-57
2021/11/03 08:43:01;;;;;;;8.95;5.40;;;;;;;10.63;81.60;96455.63;5042744;28;20025;-57
2021/11/03 08:45:28;;;;;;;10.57;6.32;;;;;;;9.96;77.76;96452.03;5042589;28;20044;-56
2021/11/03 08:47:53;;;;;;;9.68;6.47;;;;;;;10.23;77.25;96441.59;5043014;28;20051;-57
2021/11/03 08:50:24;;;;;;;13.98;7.30;;;;;;;10.09;76.23;96446.88;5042423;28;20402;-56
2021/11/03 08:52:52;;;;;;;9.68;6.57;;;;;;;9.83;77.97;96440.69;5041275;28;20021;-58
2021/11/03 08:55:17;;;;;;;10.20;7.00;;;;;;;9.86;76.90;96434.47;5041346;28;20017;-57
2021/11/03 08:57:42;;;;;;;10.35;7.20;;;;;;;9.30;78.38;96427.50;5043506;28;20024;-56
2021/11/03 09:00:12;;;;;;;11.00;7.10;;;;;;;9.47;78.79;96428.22;5042608;28;20033;-55
2021/11/03 09:02:37;;;;;;;10.55;6.72;;;;;;;9.89;78.34;96416.88;5043129;28;20013;-57
2021/11/03 09:05:03;;;;;;;10.43;7.10;;;;;;;9.97;77.53;96416.41;5043087;28;20024;-56
2021/11/03 09:07:30;;;;;;;9.00;5.68;;;;;;;9.71;78.57;96421.47;5042299;28;20029;-57
2021/11/03 09:09:55;;;;;;;10.55;7.10;;;;;;;10.12;77.33;96423.22;5025998;28;20040;-56
2021/11/03 09:12:21;;;;;;;12.10;7.20;;;;;;;9.99;78.37;96428.38;5043035;28;20041;-56
2021/11/03 09:14:46;;;;;;;10.75;6.90;;;;;;;10.58;77.02;96437.66;5044543;28;20394;-57
2021/11/03 09:17:13;;;;;;;11.00;7.07;;;;;;;10.61;75.88;96437.47;5043768;28;20040;-58
2021/11/03 09:19:38;;;;;;;10.43;6.82;;;;;;;10.89;75.67;96449.50;5043883;28;20037;-56
2021/11/03 09:22:05;;;;;;;10.73;6.57;;;;;;;11.03;75.00;96451.19;5042570;28;20044;-56
2021/11/03 09:24:31;;;;;;;10.85;7.03;;;;;;;10.41;74.70;96446.59;5043808;28;20091;-56
2021/11/03 09:26:56;;;;;;;9.23;6.53;;;;;;;10.98;74.72;96448.88;5043476;28;20502;-56
2021/11/03 09:29:21;;;;;;;8.93;6.18;;;;;;;10.68;74.83;96435.28;5041990;28;20031;-56
2021/11/03 09:31:47;;;;;;;11.55;6.30;;;;;;;10.32;75.74;96431.56;5040240;28;20639;-57
2021/11/03 09:34:12;;;;;;;10.10;6.60;;;;;;;10.53;74.88;96432.78;5044066;28;20052;-57
2021/11/03 09:36:41;;;;;;;8.77;5.53;;;;;;;11.44;73.78;96438.84;5043851;28;20037;-56
2021/11/03 09:39:07;;;;;;;9.93;6.18;;;;;;;11.80;72.34;96447.66;5043966;28;20032;-56
2021/11/03 09:41:52;;;;;;;8.90;6.30;;;;;;;11.13;74.55;96449.63;5041467;28;20033;-56
2021/11/03 09:44:24;;;;;;;8.82;6.20;;;;;;;12.11;70.49;96441.97;5043958;28;20090;-59
2021/11/03 09:46:55;;;;;;;7.95;5.60;;;;;;;12.47;69.65;96440.22;5043483;28;20529;-56
2021/11/03 09:49:29;;;;;;;7.10;5.30;;;;;;;11.87;70.12;96434.06;5043397;28;20091;-56
2021/11/03 09:52:02;;;;;;;7.00;5.13;;;;;;;12.10;70.53;96429.00;5042251;28;20044;-56
2021/11/03 09:54:33;;;;;;;7.80;4.93;;;;;;;11.76;69.55;96415.69;5043728;28;20427;-58
2021/11/03 09:57:07;;;;;;;7.88;5.18;;;;;;;11.68;71.51;96403.19;5043120;28;20498;-57
2021/11/03 09:59:44;;;;;;;8.50;5.25;;;;;;;11.53;71.33;96409.50;5043196;28;20033;-58
2021/11/03 10:02:29;;;;;;;7.60;4.97;;;;;;;11.19;70.85;96423.13;5040913;28;20029;-57
2021/11/03 10:05:13;;;;;;;7.47;4.55;;;;;;;11.44;70.41;96420.59;5041209;28;20434;-56
2021/11/03 10:07:48;;;;;;;7.25;4.82;;;;;;;11.33;71.27;96419.53;5041749;28;20062;-56
2021/11/03 10:10:50;;;;;;;7.32;4.97;;;;;;;11.10;71.63;96418.53;5039855;28;20025;-56
2021/11/03 10:13:39;;;;;;;7.93;4.80;;;;;;;11.85;69.27;96429.88;5041560;28;20709;-57
2021/11/03 10:16:10;;;;;;;8.00;4.88;;;;;;;11.83;70.66;96426.53;5041104;28;20047;-57
2021/11/03 10:18:56;;;;;;;8.93;5.70;;;;;;;11.82;71.20;96419.63;5041847;28;20062;-58
2021/11/03 10:21:29;;;;;;;9.07;6.38;;;;;;;11.59;71.79;96403.84;5039030;28;20041;-57
2021/11/03 10:24:12;;;;;;;8.82;6.30;;;;;;;11.59;72.52;96398.59;5040875;28;20048;-56
2021/11/03 10:26:56;;;;;;;8.85;6.40;;;;;;;11.38;73.22;96391.34;5041073;28;20116;-56
2021/11/03 10:29:54;;;;;;;8.05;5.90;;;;;;;11.74;71.63;96387.09;5041350;28;20529;-57
2021/11/03 10:32:34;;;;;;;9.93;6.30;;;;;;;11.50;72.77;96378.38;5037848;28;20040;-56
2021/11/03 10:35:37;;;;;;;8.77;5.90;;;;;;;12.21;71.14;96373.34;5030171;28;20024;-57
2021/11/03 10:38:14;;;;;;;11.88;6.22;;;;;;;12.13;70.13;96361.66;5031785;28;20049;-58
2021/11/03 10:40:48;;;;;;;8.07;5.68;;;;;;;11.96;71.95;96354.22;5039253;28;20037;-57
2021/11/03 10:43:36;;;;;;;9.93;5.63;;;;;;;12.46;68.80;96362.72;5040734;28;20021;-56
2021/11/03 10:46:19;;;;;;;7.43;5.07;;;;;;;12.41;69.08;96375.31;5038922;28;20509;-56
2021/11/03 10:48:48;;;;;;;7.32;5.20;;;;;;;11.91;70.37;96369.38;5041133;28;20075;-57
2021/11/03 10:51:32;;;;;;;6.80;5.10;;;;;;;12.15;69.03;96379.84;5028331;28;20099;-55
2021/11/03 10:54:12;;;;;;;7.88;4.40;;;;;;;12.14;69.60;96384.22;5041054;28;20044;-56
2021/11/03 10:56:57;;;;;;;8.13;4.60;;;;;;;12.67;67.63;96388.22;5040563;28;20044;-57
2021/11/03 10:59:30;;;;;;;5.68;3.83;;;;;;;12.59;66.69;96372.25;5040279;28;20517;-57
2021/11/03 11:02:13;;;;;;;4.88;3.35;;;;;;;12.87;68.46;96373.63;5039193;28;20040;-58
2021/11/03 11:04:40;;;;;;;;;;;;;;;13.46;65.34;96372.59;5041228;28;20146;-58
2021/11/03 11:07:24;;;;;;;6.88;4.20;;;;;;;13.73;62.69;96368.72;5038841;28;19916;-57
2021/11/03 11:10:17;;;;;;;4.40;3.13;;;;;;;12.96;63.44;96353.75;5039977;28;20029;-56
2021/11/03 11:12:44;;;;;;;6.18;3.70;;;;;;;12.77;63.45;96347.31;5040554;28;20039;-56
2021/11/03 11:15:13;;;;;;;4.85;3.13;;;;;;;12.82;63.08;96334.72;5039827;28;20498;-57
2021/11/03 11:18:26;;;;;;;4.93;3.25;;;;;;;12.74;63.29;96334.50;5040971;28;20029;-56
2021/11/03 11:20:59;;;;;;;4.72;3.40;;;;;;;12.41;64.55;96328.25;5036690;28;20140;-55
2021/11/03 11:23:30;;;;;;;5.53;3.15;;;;;;;12.65;63.49;96316.88;5040983;28;20017;-56
2021/11/03 11:26:16;;;;;;;5.85;2.95;;;;;;;12.43;64.71;96310.66;5039971;28;20040;-56
2021/11/03 11:29:23;;;;;;;4.53;3.08;;;;;;;12.31;64.03;96311.56;5040864;28;20119;-57
2021/11/03 11:31:57;;;;;;;5.50;2.95;;;;;;;12.94;64.27;96309.41;5018970;28;20037;-56
2021/11/03 11:34:58;;;;;;;5.00;2.90;;;;;;;12.32;65.74;96313.25;5039913;28;20032;-57
2021/11/03 11:37:57;;;;;;;5.68;2.83;;;;;;;12.30;65.72;96330.84;5040375;28;20415;-58
2021/11/03 11:40:42;;;;;;;7.50;2.92;;;;;;;12.65;65.09;96322.94;5039106;28;20029;-58
2021/11/03 11:43:38;;;;;;;5.78;3.00;;;;;;;12.24;65.53;96313.81;5040758;28;20807;-58
2021/11/03 11:46:12;;;;;;;3.58;2.60;;;;;;;12.10;66.49;96304.38;5039164;28;20605;-57